Back to Top

Language: 

My Weather Underground Personal Weather Station Historical Data with Graphs...

Delerius Weather Station Historical Data
Daily Summary for June 3, 2017 Units:  English    Metric   Both
« Previous Day
Next Day »
Daily Weekly Monthly Yearly Custom
  High: Low: Average:
Temperature: 69.4 °F 52.2 °F 60.7 °F
Dew Point: 54.6 °F 44.6 °F 49.9 °F
Humidity: 95 % 43 % 70 %
Wind Speed: 15.0 mph 0.0 mph 5.2 mph
Wind Gust: 24.0 mph - -
Wind:- - WNW
Pressure: 29.94 in 29.86 in -
Precipitation: 0.02 in    
Historical Graphs
 
 
Tabular Data for June 3, 2017
Time Temperature Dew Point Pressure Wind Wind Speed Wind Gust Humidity Rainfall Rate (Hourly) solar Conditions
00:00 56.3 °F 54.6 °F 29.94 in NW 2.0 mph 6.0 mph 94 % 0.00 in 0 W/m2
00:05 56.3 °F 54.3 °F 29.94 in NW 2.0 mph 6.0 mph 93 % 0.00 in 0 W/m2
00:10 56.3 °F 54.3 °F 29.94 in NW 1.0 mph 5.0 mph 93 % 0.00 in 0 W/m2
00:11 56.3 °F 54.3 °F 29.94 in NW 1.0 mph 4.0 mph 93 % 0.00 in 0 W/m2
00:16 56.3 °F 54.3 °F 29.93 in NW 1.0 mph 6.0 mph 93 % 0.00 in 0 W/m2
00:21 56.3 °F 54.3 °F 29.94 in NW 2.0 mph 6.0 mph 93 % 0.00 in 0 W/m2
00:26 56.3 °F 54.3 °F 29.94 in NW 2.0 mph 5.0 mph 93 % 0.00 in 0 W/m2
00:31 56.3 °F 54.6 °F 29.94 in NW 1.0 mph 5.0 mph 94 % 0.00 in 0 W/m2
00:34 56.3 °F 54.3 °F 29.94 in NW 1.0 mph 5.0 mph 93 % 0.00 in 0 W/m2
00:39 56.3 °F 54.3 °F 29.94 in NW 2.0 mph 5.0 mph 93 % 0.00 in 0 W/m2
00:44 56.1 °F 54.1 °F 29.94 in NW 1.0 mph 5.0 mph 93 % 0.00 in 0 W/m2
00:49 56.3 °F 54.3 °F 29.94 in NW 1.0 mph 5.0 mph 93 % 0.00 in 0 W/m2
00:54 56.3 °F 54.3 °F 29.93 in NW 1.0 mph 4.0 mph 93 % 0.00 in 0 W/m2
00:59 56.3 °F 54.3 °F 29.93 in NW 1.0 mph 6.0 mph 93 % 0.00 in 0 W/m2
01:04 56.3 °F 54.3 °F 29.93 in NW 2.0 mph 6.0 mph 93 % 0.00 in 0 W/m2
01:08 56.3 °F 54.3 °F 29.93 in NW 2.0 mph 5.0 mph 93 % 0.00 in 0 W/m2
01:13 56.1 °F 54.1 °F 29.93 in NW 2.0 mph 5.0 mph 93 % 0.00 in 0 W/m2
01:18 56.1 °F 54.1 °F 29.93 in NW 2.0 mph 5.0 mph 93 % 0.01 in 0 W/m2
01:23 56.3 °F 54.6 °F 29.94 in NW 1.0 mph 5.0 mph 94 % 0.01 in 0 W/m2
01:28 56.3 °F 54.6 °F 29.93 in NW 1.0 mph 5.0 mph 94 % 0.01 in 0 W/m2
01:33 56.3 °F 54.6 °F 29.93 in NW 1.0 mph 2.0 mph 94 % 0.01 in 0 W/m2
01:38 56.3 °F 54.6 °F 29.93 in NW 1.0 mph 5.0 mph 94 % 0.01 in 0 W/m2
01:43 56.1 °F 54.4 °F 29.93 in Calm   5.0 mph 94 % 0.01 in 0 W/m2
01:48 56.1 °F 54.4 °F 29.93 in Calm     94 % 0.01 in 0 W/m2
01:53 56.1 °F 54.4 °F 29.93 in Calm   4.0 mph 94 % 0.02 in 0 W/m2
01:58 55.9 °F 54.2 °F 29.93 in NW 1.0 mph 4.0 mph 94 % 0.02 in 0 W/m2
02:03 55.9 °F 54.2 °F 29.92 in Calm   4.0 mph 94 % 0.02 in 0 W/m2
02:09 55.9 °F 54.2 °F 29.92 in Calm   2.0 mph 94 % 0.02 in 0 W/m2
02:14 55.8 °F 54.1 °F 29.92 in Calm     94 % 0.02 in 0 W/m2
02:19 55.8 °F 54.1 °F 29.92 in Calm     94 % 0.01 in 0 W/m2
02:24 55.8 °F 54.1 °F 29.92 in Calm     94 % 0.01 in 0 W/m2
02:29 55.6 °F 53.9 °F 29.92 in Calm     94 % 0.01 in 0 W/m2
02:34 55.6 °F 53.9 °F 29.92 in Calm     94 % 0.01 in 0 W/m2
02:39 55.6 °F 53.9 °F 29.92 in Calm     94 % 0.01 in 0 W/m2
02:44 55.6 °F 53.9 °F 29.91 in Calm     94 % 0.01 in 0 W/m2
02:49 55.6 °F 54.2 °F 29.91 in Calm   3.0 mph 95 % 0.01 in 0 W/m2
02:54 55.6 °F 54.2 °F 29.91 in Calm   4.0 mph 95 % 0.00 in 0 W/m2
02:59 55.4 °F 54.0 °F 29.91 in NW 1.0 mph 4.0 mph 95 % 0.00 in 0 W/m2
03:04 55.4 °F 54.0 °F 29.91 in NW 1.0 mph 4.0 mph 95 % 0.00 in 0 W/m2
03:09 55.2 °F 53.8 °F 29.91 in NW 1.0 mph 4.0 mph 95 % 0.00 in 0 W/m2
03:14 55.0 °F 53.6 °F 29.91 in NW 1.0 mph 5.0 mph 95 % 0.00 in 0 W/m2
03:19 55.0 °F 53.6 °F 29.91 in NW 2.0 mph 5.0 mph 95 % 0.00 in 0 W/m2
03:24 54.9 °F 53.2 °F 29.91 in NW 3.0 mph 5.0 mph 94 % 0.00 in 0 W/m2
03:25 54.9 °F 53.2 °F 29.91 in NW 3.0 mph 5.0 mph 94 % 0.00 in 0 W/m2
03:30 54.7 °F 53.0 °F 29.91 in NW 3.0 mph 5.0 mph 94 % 0.00 in 0 W/m2
03:35 54.9 °F 53.5 °F 29.91 in NW 2.0 mph 6.0 mph 95 % 0.00 in 0 W/m2
03:40 54.7 °F 53.3 °F 29.91 in NW 3.0 mph 6.0 mph 95 % 0.00 in 0 W/m2
03:45 54.7 °F 53.3 °F 29.91 in NW 3.0 mph 6.0 mph 95 % 0.00 in 0 W/m2
03:46 54.7 °F 53.3 °F 29.91 in NW 3.0 mph 6.0 mph 95 % 0.00 in 0 W/m2
03:51 54.7 °F 53.3 °F 29.91 in NW 3.0 mph 5.0 mph 95 % 0.00 in 0 W/m2
03:56 54.5 °F 53.1 °F 29.91 in NW 2.0 mph 5.0 mph 95 % 0.00 in 0 W/m2
04:01 54.3 °F 52.9 °F 29.91 in NW 2.0 mph 7.0 mph 95 % 0.00 in 0 W/m2
04:06 54.1 °F 52.5 °F 29.91 in NW 3.0 mph 7.0 mph 94 % 0.00 in 0 W/m2
04:11 53.8 °F 52.1 °F 29.91 in NW 3.0 mph 7.0 mph 94 % 0.00 in 0 W/m2
04:12 53.8 °F 52.1 °F 29.91 in NW 3.0 mph 7.0 mph 94 % 0.00 in 0 W/m2
04:17 53.4 °F 51.7 °F 29.91 in NW 3.0 mph 6.0 mph 94 % 0.00 in 0 W/m2
04:23 53.4 °F 51.4 °F 29.90 in WNW 3.0 mph 8.0 mph 93 % 0.00 in 0 W/m2
04:28 53.2 °F 51.3 °F 29.90 in NW 3.0 mph 8.0 mph 93 % 0.00 in 0 W/m2
04:33 53.2 °F 51.3 °F 29.90 in NW 3.0 mph 6.0 mph 93 % 0.00 in 0 W/m2
04:38 53.2 °F 51.3 °F 29.90 in NW 3.0 mph 6.0 mph 93 % 0.00 in 0 W/m2
04:42 53.2 °F 51.3 °F 29.90 in NW 3.0 mph 6.0 mph 93 % 0.00 in 0 W/m2
04:48 53.1 °F 51.1 °F 29.91 in NW 3.0 mph 6.0 mph 93 % 0.00 in 0 W/m2
04:53 53.1 °F 50.8 °F 29.91 in NW 4.0 mph 8.0 mph 92 % 0.00 in 5 W/m2
04:58 52.9 °F 50.6 °F 29.91 in NW 5.0 mph 10.0 mph 92 % 0.00 in 5 W/m2
05:03 52.9 °F 50.6 °F 29.91 in WNW 6.0 mph 10.0 mph 92 % 0.00 in 7 W/m2
05:08 52.9 °F 50.6 °F 29.91 in WNW 6.0 mph 9.0 mph 92 % 0.00 in 9 W/m2
05:13 52.9 °F 50.6 °F 29.91 in WNW 5.0 mph 9.0 mph 92 % 0.00 in 12 W/m2
05:18 52.9 °F 50.6 °F 29.91 in NW 4.0 mph 8.0 mph 92 % 0.00 in 16 W/m2
05:23 52.7 °F 50.4 °F 29.91 in WNW 4.0 mph 8.0 mph 92 % 0.00 in 18 W/m2
05:28 52.5 °F 50.0 °F 29.91 in WNW 5.0 mph 9.0 mph 91 % 0.00 in 19 W/m2
05:33 52.3 °F 49.8 °F 29.91 in NW 5.0 mph 9.0 mph 91 % 0.00 in 18 W/m2
05:38 52.3 °F 49.8 °F 29.91 in NW 3.0 mph 8.0 mph 91 % 0.00 in 23 W/m2
05:43 52.2 °F 49.6 °F 29.91 in WNW 2.0 mph 6.0 mph 91 % 0.00 in 37 W/m2
05:48 52.2 °F 49.9 °F 29.91 in WNW 1.0 mph 5.0 mph 92 % 0.00 in 47 W/m2
05:53 52.3 °F 50.1 °F 29.91 in WNW 2.0 mph 6.0 mph 92 % 0.00 in 39 W/m2
05:58 52.3 °F 50.1 °F 29.91 in WNW 2.0 mph 6.0 mph 92 % 0.00 in 49 W/m2
06:03 52.3 °F 50.1 °F 29.91 in WNW 4.0 mph 9.0 mph 92 % 0.00 in 47 W/m2
06:08 52.3 °F 50.1 °F 29.91 in WNW 5.0 mph 9.0 mph 92 % 0.00 in 39 W/m2
06:13 52.5 °F 50.3 °F 29.91 in WNW 4.0 mph 8.0 mph 92 % 0.00 in 40 W/m2
06:18 52.5 °F 50.3 °F 29.91 in WNW 4.0 mph 8.0 mph 92 % 0.00 in 28 W/m2
06:23 52.5 °F 50.0 °F 29.91 in NW 4.0 mph 7.0 mph 91 % 0.00 in 28 W/m2
06:28 52.3 °F 49.8 °F 29.91 in WNW 3.0 mph 6.0 mph 91 % 0.00 in 44 W/m2
06:33 52.3 °F 49.8 °F 29.91 in WNW 3.0 mph 6.0 mph 91 % 0.00 in 44 W/m2
06:38 52.3 °F 49.8 °F 29.92 in WNW 3.0 mph 7.0 mph 91 % 0.00 in 54 W/m2
06:43 52.3 °F 49.5 °F 29.91 in WNW 4.0 mph 7.0 mph 90 % 0.00 in 53 W/m2
06:48 52.3 °F 49.5 °F 29.92 in WNW 4.0 mph 7.0 mph 90 % 0.00 in 47 W/m2
06:53 52.3 °F 49.5 °F 29.92 in WNW 4.0 mph 7.0 mph 90 % 0.00 in 49 W/m2
06:58 52.5 °F 49.7 °F 29.92 in WNW 4.0 mph 7.0 mph 90 % 0.00 in 44 W/m2
07:03 52.7 °F 49.8 °F 29.92 in WNW 3.0 mph 5.0 mph 90 % 0.00 in 47 W/m2
07:08 52.9 °F 50.0 °F 29.92 in WNW 2.0 mph 6.0 mph 90 % 0.00 in 47 W/m2
07:13 53.2 °F 50.7 °F 29.91 in WNW 2.0 mph 6.0 mph 91 % 0.00 in 146 W/m2
07:18 53.6 °F 50.7 °F 29.91 in WNW 3.0 mph 6.0 mph 90 % 0.00 in 302 W/m2
07:23 54.1 °F 51.0 °F 29.91 in WNW 4.0 mph 7.0 mph 89 % 0.00 in 315 W/m2
07:28 55.0 °F 51.9 °F 29.91 in WNW 4.0 mph 7.0 mph 89 % 0.00 in 330 W/m2
07:33 55.9 °F 52.1 °F 29.91 in WNW 4.0 mph 7.0 mph 87 % 0.00 in 343 W/m2
07:39 56.7 °F 51.9 °F 29.91 in NW 4.0 mph 8.0 mph 84 % 0.00 in 258 W/m2
07:44 57.4 °F 51.3 °F 29.92 in WNW 5.0 mph 11.0 mph 80 % 0.00 in 360 W/m2
07:49 57.7 °F 51.6 °F 29.92 in WNW 5.0 mph 11.0 mph 80 % 0.00 in 387 W/m2
07:54 58.1 °F 51.3 °F 29.92 in WNW 4.0 mph 8.0 mph 78 % 0.00 in 160 W/m2
07:59 58.1 °F 51.3 °F 29.92 in WNW 4.0 mph 8.0 mph 78 % 0.00 in 141 W/m2
08:04 57.9 °F 50.4 °F 29.92 in WNW 3.0 mph 8.0 mph 76 % 0.00 in 116 W/m2
08:09 57.9 °F 50.8 °F 29.92 in NW 4.0 mph 7.0 mph 77 % 0.00 in 237 W/m2
08:10 57.9 °F 50.8 °F 29.92 in NW 4.0 mph 7.0 mph 77 % 0.00 in 278 W/m2
08:15 58.5 °F 51.6 °F 29.92 in NW 4.0 mph 7.0 mph 78 % 0.00 in 443 W/m2
08:20 59.0 °F 51.8 °F 29.92 in WNW 5.0 mph 12.0 mph 77 % 0.00 in 461 W/m2
08:25 59.5 °F 51.2 °F 29.92 in WNW 7.0 mph 12.0 mph 74 % 0.00 in 469 W/m2
08:30 60.1 °F 51.8 °F 29.92 in WNW 7.0 mph 11.0 mph 74 % 0.00 in 490 W/m2
08:35 60.4 °F 51.7 °F 29.92 in WNW 7.0 mph 12.0 mph 73 % 0.00 in 506 W/m2
08:40 60.6 °F 51.5 °F 29.92 in West 8.0 mph 15.0 mph 72 % 0.00 in 515 W/m2
08:45 61.2 °F 52.1 °F 29.92 in WNW 7.0 mph 15.0 mph 72 % 0.00 in 527 W/m2
08:50 61.3 °F 52.6 °F 29.92 in West 7.0 mph 12.0 mph 73 % 0.00 in 485 W/m2
08:55 61.3 °F 52.2 °F 29.92 in West 8.0 mph 14.0 mph 72 % 0.00 in 557 W/m2
09:00 61.2 °F 52.1 °F 29.92 in West 9.0 mph 14.0 mph 72 % 0.00 in 568 W/m2
09:05 61.2 °F 52.4 °F 29.92 in West 8.0 mph 14.0 mph 73 % 0.00 in 584 W/m2
09:10 61.5 °F 52.4 °F 29.92 in West 8.0 mph 13.0 mph 72 % 0.00 in 603 W/m2
09:15 61.9 °F 53.1 °F 29.92 in West 7.0 mph 12.0 mph 73 % 0.00 in 608 W/m2
09:20 62.1 °F 52.5 °F 29.92 in West 8.0 mph 14.0 mph 71 % 0.00 in 615 W/m2
09:25 62.2 °F 52.7 °F 29.92 in West 8.0 mph 14.0 mph 71 % 0.00 in 638 W/m2
09:30 62.2 °F 52.7 °F 29.92 in West 8.0 mph 15.0 mph 71 % 0.00 in 664 W/m2
09:35 62.8 °F 52.8 °F 29.91 in West 8.0 mph 15.0 mph 70 % 0.00 in 729 W/m2
09:40 63.1 °F 52.4 °F 29.91 in West 8.0 mph 15.0 mph 68 % 0.00 in 759 W/m2
09:45 63.7 °F 52.5 °F 29.91 in WNW 8.0 mph 13.0 mph 67 % 0.00 in 722 W/m2
09:50 64.0 °F 52.4 °F 29.91 in NW 7.0 mph 13.0 mph 66 % 0.00 in 745 W/m2
09:55 64.2 °F 51.8 °F 29.91 in NW 7.0 mph 14.0 mph 64 % 0.00 in 668 W/m2
10:00 64.0 °F 51.6 °F 29.91 in WNW 8.0 mph 14.0 mph 64 % 0.00 in 758 W/m2
10:05 64.2 °F 51.4 °F 29.91 in WNW 9.0 mph 16.0 mph 63 % 0.00 in 759 W/m2
10:10 64.2 °F 49.6 °F 29.91 in West 9.0 mph 18.0 mph 59 % 0.00 in 747 W/m2
10:11 64.4 °F 50.7 °F 29.91 in West 9.0 mph 18.0 mph 61 % 0.00 in 860 W/m2
10:16 64.4 °F 49.8 °F 29.91 in West 9.0 mph 15.0 mph 59 % 0.00 in 772 W/m2
10:21 64.8 °F 49.6 °F 29.91 in West 9.0 mph 14.0 mph 58 % 0.00 in 824 W/m2
10:26 64.9 °F 48.9 °F 29.91 in West 9.0 mph 14.0 mph 56 % 0.00 in 761 W/m2
10:31 64.9 °F 48.4 °F 29.91 in WSW 9.0 mph 14.0 mph 55 % 0.00 in 209 W/m2
10:36 64.8 °F 48.2 °F 29.91 in WSW 8.0 mph 13.0 mph 55 % 0.00 in 236 W/m2
10:42 64.8 °F 48.2 °F 29.90 in West 8.0 mph 13.0 mph 55 % 0.00 in 366 W/m2
10:47 64.6 °F 47.6 °F 29.90 in West 8.0 mph 14.0 mph 54 % 0.00 in 861 W/m2
10:52 64.9 °F 48.4 °F 29.90 in WSW 8.0 mph 14.0 mph 55 % 0.00 in 905 W/m2
10:57 65.3 °F 48.2 °F 29.90 in West 8.0 mph 12.0 mph 54 % 0.00 in 865 W/m2
11:02 65.1 °F 49.0 °F 29.90 in WSW 8.0 mph 13.0 mph 56 % 0.00 in 856 W/m2
11:07 65.8 °F 49.2 °F 29.90 in West 8.0 mph 13.0 mph 55 % 0.00 in 895 W/m2
11:12 66.4 °F 48.2 °F 29.90 in West 7.0 mph 13.0 mph 52 % 0.00 in 749 W/m2
11:17 66.2 °F 46.5 °F 29.90 in WSW 7.0 mph 13.0 mph 49 % 0.00 in 881 W/m2
11:22 66.0 °F 47.4 °F 29.90 in WSW 9.0 mph 13.0 mph 51 % 0.00 in 877 W/m2
11:27 65.8 °F 48.2 °F 29.90 in WSW 8.0 mph 13.0 mph 53 % 0.00 in 935 W/m2
11:32 66.6 °F 48.9 °F 29.90 in West 8.0 mph 15.0 mph 53 % 0.00 in 918 W/m2
11:37 66.9 °F 48.2 °F 29.90 in West 8.0 mph 15.0 mph 51 % 0.00 in 197 W/m2
11:42 66.7 °F 47.5 °F 29.90 in WSW 8.0 mph 12.0 mph 50 % 0.00 in 877 W/m2
11:48 66.7 °F 49.6 °F 29.90 in WSW 8.0 mph 16.0 mph 54 % 0.00 in 940 W/m2
11:53 66.9 °F 48.7 °F 29.90 in West 9.0 mph 16.0 mph 52 % 0.00 in 183 W/m2
11:58 66.9 °F 48.7 °F 29.90 in WNW 9.0 mph 15.0 mph 52 % 0.00 in 960 W/m2
12:03 66.9 °F 47.7 °F 29.90 in WNW 7.0 mph 14.0 mph 50 % 0.00 in 937 W/m2
12:08 67.5 °F 48.7 °F 29.90 in WNW 7.0 mph 14.0 mph 51 % 0.00 in 984 W/m2
12:13 67.8 °F 49.0 °F 29.90 in WNW 8.0 mph 19.0 mph 51 % 0.00 in 262 W/m2
12:18 67.5 °F 49.2 °F 29.90 in West 7.0 mph 19.0 mph 52 % 0.00 in 953 W/m2
12:23 67.6 °F 48.3 °F 29.90 in WNW 6.0 mph 14.0 mph 50 % 0.00 in 272 W/m2
12:28 67.5 °F 48.2 °F 29.90 in WNW 7.0 mph 14.0 mph 50 % 0.00 in 872 W/m2
12:33 67.6 °F 46.7 °F 29.90 in West 7.0 mph 13.0 mph 47 % 0.00 in 914 W/m2
12:38 68.2 °F 46.6 °F 29.89 in West 7.0 mph 13.0 mph 46 % 0.00 in 979 W/m2
12:43 68.5 °F 49.2 °F 29.89 in West 7.0 mph 15.0 mph 50 % 0.00 in 844 W/m2
12:48 68.7 °F 47.1 °F 29.89 in WNW 8.0 mph 15.0 mph 46 % 0.00 in 840 W/m2
12:53 68.7 °F 47.1 °F 29.89 in WNW 8.0 mph 13.0 mph 46 % 0.00 in 874 W/m2
12:58 68.5 °F 46.9 °F 29.89 in WNW 8.0 mph 14.0 mph 46 % 0.00 in 898 W/m2
13:03 68.7 °F 49.3 °F 29.89 in WNW 8.0 mph 14.0 mph 50 % 0.00 in 842 W/m2
13:08 69.1 °F 48.6 °F 29.88 in WNW 8.0 mph 13.0 mph 48 % 0.00 in 751 W/m2
13:13 68.9 °F 47.8 °F 29.89 in West 9.0 mph 13.0 mph 47 % 0.00 in 701 W/m2
13:18 68.9 °F 45.5 °F 29.89 in West 9.0 mph 14.0 mph 43 % 0.00 in 747 W/m2
13:23 69.1 °F 46.8 °F 29.88 in West 8.0 mph 14.0 mph 45 % 0.00 in 821 W/m2
13:28 68.9 °F 47.3 °F 29.88 in West 8.0 mph 14.0 mph 46 % 0.00 in 765 W/m2
13:33 69.1 °F 48.0 °F 29.88 in West 8.0 mph 13.0 mph 47 % 0.00 in 740 W/m2
13:38 68.7 °F 46.5 °F 29.88 in West 8.0 mph 15.0 mph 45 % 0.00 in 696 W/m2
13:43 68.7 °F 45.9 °F 29.88 in West 9.0 mph 15.0 mph 44 % 0.00 in 443 W/m2
13:48 68.0 °F 45.9 °F 29.88 in West 8.0 mph 13.0 mph 45 % 0.00 in 687 W/m2
13:53 67.6 °F 45.5 °F 29.88 in WSW 7.0 mph 14.0 mph 45 % 0.00 in 636 W/m2
13:58 67.3 °F 44.6 °F 29.88 in WSW 8.0 mph 14.0 mph 44 % 0.00 in 524 W/m2
14:03 67.3 °F 46.4 °F 29.88 in WSW 8.0 mph 14.0 mph 47 % 0.00 in 668 W/m2
14:08 67.8 °F 45.7 °F 29.88 in West 6.0 mph 11.0 mph 45 % 0.00 in 649 W/m2
14:14 68.2 °F 46.0 °F 29.88 in West 6.0 mph 11.0 mph 45 % 0.00 in 805 W/m2
14:19 68.5 °F 46.9 °F 29.88 in West 5.0 mph 9.0 mph 46 % 0.00 in 450 W/m2
14:24 68.9 °F 47.8 °F 29.88 in WNW 5.0 mph 11.0 mph 47 % 0.00 in 642 W/m2
14:29 68.7 °F 47.1 °F 29.88 in West 6.0 mph 11.0 mph 46 % 0.00 in 589 W/m2
14:34 68.4 °F 47.3 °F 29.88 in WSW 7.0 mph 13.0 mph 47 % 0.00 in 406 W/m2
14:39 68.0 °F 48.1 °F 29.88 in West 9.0 mph 15.0 mph 49 % 0.00 in 461 W/m2
14:44 67.6 °F 48.3 °F 29.88 in West 9.0 mph 15.0 mph 50 % 0.00 in 396 W/m2
14:49 67.6 °F 48.9 °F 29.88 in West 10.0 mph 15.0 mph 51 % 0.00 in 454 W/m2
14:54 67.5 °F 49.2 °F 29.88 in West 9.0 mph 15.0 mph 52 % 0.00 in 694 W/m2
14:59 67.5 °F 48.7 °F 29.88 in West 9.0 mph 15.0 mph 51 % 0.00 in 278 W/m2
15:04 66.7 °F 48.5 °F 29.88 in West 11.0 mph 15.0 mph 52 % 0.00 in 313 W/m2
15:09 66.6 °F 48.9 °F 29.88 in West 10.0 mph 15.0 mph 53 % 0.00 in 424 W/m2
15:11 66.4 °F 48.7 °F 29.88 in West 9.0 mph 15.0 mph 53 % 0.00 in 424 W/m2
15:16 66.7 °F 48.0 °F 29.88 in West 8.0 mph 16.0 mph 51 % 0.00 in 448 W/m2
15:21 67.3 °F 49.6 °F 29.88 in West 7.0 mph 16.0 mph 53 % 0.00 in 392 W/m2
15:26 68.0 °F 49.2 °F 29.88 in West 6.0 mph 10.0 mph 51 % 0.00 in 1049 W/m2
15:31 68.4 °F 49.0 °F 29.88 in West 7.0 mph 12.0 mph 50 % 0.00 in 617 W/m2
15:36 68.4 °F 48.5 °F 29.88 in West 8.0 mph 13.0 mph 49 % 0.00 in 287 W/m2
15:41 68.2 °F 48.8 °F 29.87 in West 9.0 mph 16.0 mph 50 % 0.00 in 853 W/m2
15:46 68.0 °F 48.7 °F 29.87 in West 9.0 mph 16.0 mph 50 % 0.00 in 264 W/m2
15:51 68.2 °F 49.4 °F 29.87 in WNW 9.0 mph 14.0 mph 51 % 0.00 in 817 W/m2
15:56 68.7 °F 48.8 °F 29.87 in WNW 8.0 mph 14.0 mph 49 % 0.00 in 858 W/m2
16:01 69.4 °F 46.6 °F 29.87 in West 9.0 mph 16.0 mph 44 % 0.00 in 884 W/m2
16:06 69.4 °F 46.6 °F 29.86 in West 8.0 mph 16.0 mph 44 % 0.00 in 278 W/m2
16:11 69.1 °F 48.0 °F 29.87 in West 8.0 mph 15.0 mph 47 % 0.00 in 288 W/m2
16:16 68.4 °F 48.5 °F 29.87 in WNW 9.0 mph 15.0 mph 49 % 0.00 in 265 W/m2
16:21 68.0 °F 47.6 °F 29.87 in WNW 8.0 mph 14.0 mph 48 % 0.00 in 311 W/m2
16:22 68.0 °F 48.1 °F 29.87 in WNW 8.0 mph 14.0 mph 49 % 0.00 in 287 W/m2
16:27 67.8 °F 48.5 °F 29.86 in West 8.0 mph 14.0 mph 50 % 0.00 in 301 W/m2
16:32 67.8 °F 47.4 °F 29.86 in West 8.0 mph 14.0 mph 48 % 0.00 in 195 W/m2
16:37 67.6 °F 47.2 °F 29.86 in West 8.0 mph 14.0 mph 48 % 0.00 in 213 W/m2
16:42 67.5 °F 46.5 °F 29.86 in West 7.0 mph 12.0 mph 47 % 0.00 in 272 W/m2
16:47 67.3 °F 47.5 °F 29.87 in WSW 7.0 mph 13.0 mph 49 % 0.00 in 207 W/m2
16:52 67.1 °F 47.3 °F 29.86 in WSW 7.0 mph 13.0 mph 49 % 0.00 in 246 W/m2
16:57 67.3 °F 46.4 °F 29.86 in WSW 7.0 mph 19.0 mph 47 % 0.00 in 309 W/m2
17:02 67.3 °F 45.8 °F 29.87 in West 10.0 mph 20.0 mph 46 % 0.00 in 336 W/m2
17:07 67.6 °F 46.1 °F 29.87 in West 12.0 mph 21.0 mph 46 % 0.00 in 779 W/m2
17:12 68.2 °F 46.6 °F 29.87 in West 11.0 mph 21.0 mph 46 % 0.00 in 708 W/m2
17:17 67.8 °F 45.7 °F 29.86 in WSW 11.0 mph 22.0 mph 45 % 0.00 in 429 W/m2
17:22 67.5 °F 48.2 °F 29.87 in West 12.0 mph 22.0 mph 50 % 0.00 in 647 W/m2
17:27 66.9 °F 47.7 °F 29.87 in West 13.0 mph 22.0 mph 50 % 0.00 in 211 W/m2
17:32 65.7 °F 48.1 °F 29.87 in West 13.0 mph 24.0 mph 53 % 0.00 in 246 W/m2
17:37 64.6 °F 48.0 °F 29.87 in West 14.0 mph 24.0 mph 55 % 0.00 in 302 W/m2
17:42 64.2 °F 47.7 °F 29.87 in West 15.0 mph 24.0 mph 55 % 0.00 in 227 W/m2
17:47 64.2 °F 48.2 °F 29.87 in West 14.0 mph 24.0 mph 56 % 0.00 in 236 W/m2
17:52 63.9 °F 48.3 °F 29.88 in West 13.0 mph 22.0 mph 57 % 0.00 in 234 W/m2
17:57 64.0 °F 49.0 °F 29.87 in West 12.0 mph 21.0 mph 58 % 0.00 in 577 W/m2
17:58 64.0 °F 48.5 °F 29.87 in West 11.0 mph 19.0 mph 57 % 0.00 in 359 W/m2
18:03 64.4 °F 49.3 °F 29.87 in West 11.0 mph 20.0 mph 58 % 0.00 in 469 W/m2
18:08 64.8 °F 49.6 °F 29.87 in West 9.0 mph 20.0 mph 58 % 0.00 in 461 W/m2
18:13 65.1 °F 49.5 °F 29.87 in West 8.0 mph 16.0 mph 57 % 0.00 in 431 W/m2
18:18 65.3 °F 49.7 °F 29.87 in West 7.0 mph 16.0 mph 57 % 0.00 in 415 W/m2
18:23 65.1 °F 48.5 °F 29.87 in West 7.0 mph 18.0 mph 55 % 0.00 in 418 W/m2
18:28 65.1 °F 49.5 °F 29.87 in West 7.0 mph 18.0 mph 57 % 0.00 in 364 W/m2
18:33 65.1 °F 49.0 °F 29.87 in West 7.0 mph 13.0 mph 56 % 0.00 in 339 W/m2
18:38 65.3 °F 49.2 °F 29.87 in West 7.0 mph 13.0 mph 56 % 0.00 in 323 W/m2
18:43 65.3 °F 48.7 °F 29.87 in West 7.0 mph 13.0 mph 55 % 0.00 in 306 W/m2
18:48 64.9 °F 48.4 °F 29.87 in West 8.0 mph 13.0 mph 55 % 0.00 in 292 W/m2
18:53 64.6 °F 48.0 °F 29.87 in WSW 7.0 mph 13.0 mph 55 % 0.00 in 279 W/m2
18:58 64.6 °F 47.6 °F 29.87 in WSW 8.0 mph 14.0 mph 54 % 0.00 in 264 W/m2
19:03 64.6 °F 46.6 °F 29.87 in West 8.0 mph 14.0 mph 52 % 0.00 in 250 W/m2
19:08 64.2 °F 46.2 °F 29.87 in WSW 8.0 mph 16.0 mph 52 % 0.00 in 236 W/m2
19:13 63.9 °F 46.4 °F 29.87 in SW 9.0 mph 18.0 mph 53 % 0.00 in 225 W/m2
19:18 63.9 °F 47.4 °F 29.87 in WSW 8.0 mph 18.0 mph 55 % 0.00 in 209 W/m2
19:23 64.0 °F 47.5 °F 29.87 in WSW 7.0 mph 15.0 mph 55 % 0.00 in 197 W/m2
19:28 64.0 °F 48.0 °F 29.87 in West 8.0 mph 14.0 mph 56 % 0.00 in 179 W/m2
19:33 63.7 °F 48.2 °F 29.87 in West 9.0 mph 14.0 mph 57 % 0.00 in 172 W/m2
19:38 63.5 °F 48.5 °F 29.87 in WSW 8.0 mph 14.0 mph 58 % 0.00 in 56 W/m2
19:43 63.1 °F 48.1 °F 29.87 in WSW 6.0 mph 11.0 mph 58 % 0.00 in 35 W/m2
19:48 62.8 °F 47.8 °F 29.87 in WSW 6.0 mph 13.0 mph 58 % 0.00 in 65 W/m2
19:53 62.6 °F 48.1 °F 29.87 in West 5.0 mph 13.0 mph 59 % 0.00 in 102 W/m2
19:58 62.6 °F 48.5 °F 29.88 in WSW 4.0 mph 9.0 mph 60 % 0.00 in 142 W/m2
20:03 62.6 °F 48.5 °F 29.87 in WSW 4.0 mph 10.0 mph 60 % 0.00 in 102 W/m2
20:08 62.6 °F 49.0 °F 29.88 in West 5.0 mph 10.0 mph 61 % 0.00 in 53 W/m2
20:14 62.4 °F 48.8 °F 29.88 in West 4.0 mph 9.0 mph 61 % 0.00 in 49 W/m2
20:19 62.4 °F 48.8 °F 29.88 in West 4.0 mph 9.0 mph 61 % 0.00 in 54 W/m2
20:24 62.2 °F 49.1 °F 29.88 in West 3.0 mph 9.0 mph 62 % 0.00 in 51 W/m2
20:29 62.2 °F 49.5 °F 29.88 in WNW 3.0 mph 7.0 mph 63 % 0.00 in 37 W/m2
20:34 62.1 °F 49.3 °F 29.88 in WNW 4.0 mph 10.0 mph 63 % 0.00 in 26 W/m2
20:39 61.7 °F 49.4 °F 29.88 in WNW 4.0 mph 10.0 mph 64 % 0.00 in 28 W/m2
20:44 61.3 °F 49.5 °F 29.89 in WNW 4.0 mph 9.0 mph 65 % 0.00 in 40 W/m2
20:49 61.2 °F 49.3 °F 29.89 in WNW 4.0 mph 9.0 mph 65 % 0.00 in 40 W/m2
20:54 60.8 °F 49.4 °F 29.89 in WNW 5.0 mph 9.0 mph 66 % 0.00 in 40 W/m2
20:59 60.6 °F 49.6 °F 29.89 in WNW 5.0 mph 9.0 mph 67 % 0.00 in 35 W/m2
21:04 60.3 °F 49.3 °F 29.89 in WNW 4.0 mph 8.0 mph 67 % 0.00 in 28 W/m2
21:09 60.1 °F 49.5 °F 29.89 in NW 4.0 mph 9.0 mph 68 % 0.00 in 23 W/m2
21:14 59.7 °F 49.1 °F 29.89 in NW 4.0 mph 9.0 mph 68 % 0.00 in 18 W/m2
21:19 59.5 °F 49.4 °F 29.89 in NW 3.0 mph 8.0 mph 69 % 0.00 in 14 W/m2
21:24 59.4 °F 49.2 °F 29.89 in NW 3.0 mph 9.0 mph 69 % 0.00 in 12 W/m2
21:29 59.4 °F 49.6 °F 29.89 in WNW 3.0 mph 9.0 mph 70 % 0.00 in 11 W/m2
21:34 59.0 °F 49.2 °F 29.90 in NW 3.0 mph 8.0 mph 70 % 0.00 in 7 W/m2
21:39 58.8 °F 49.1 °F 29.90 in WNW 3.0 mph 8.0 mph 70 % 0.00 in 0 W/m2
21:44 58.6 °F 48.9 °F 29.90 in WNW 2.0 mph 6.0 mph 70 % 0.00 in 0 W/m2
21:49 58.6 °F 49.3 °F 29.90 in WNW 1.0 mph 4.0 mph 71 % 0.00 in 0 W/m2
21:54 58.5 °F 49.5 °F 29.90 in WNW 1.0 mph 2.0 mph 72 % 0.00 in 0 W/m2
21:59 58.3 °F 49.7 °F 29.90 in WNW 1.0 mph 4.0 mph 73 % 0.00 in 0 W/m2
22:04 57.9 °F 49.3 °F 29.90 in WNW 1.0 mph 4.0 mph 73 % 0.00 in 0 W/m2
22:09 57.7 °F 49.1 °F 29.90 in WNW 1.0 mph 3.0 mph 73 % 0.00 in 0 W/m2
22:14 57.6 °F 49.3 °F 29.90 in WNW 1.0 mph 4.0 mph 74 % 0.00 in 0 W/m2
22:19 57.2 °F 49.0 °F 29.90 in WNW 1.0 mph 4.0 mph 74 % 0.00 in 0 W/m2
22:24 56.8 °F 49.0 °F 29.90 in Calm   4.0 mph 75 % 0.00 in 0 W/m2
22:29 56.8 °F 49.0 °F 29.90 in Calm   1.0 mph 75 % 0.00 in 0 W/m2
22:34 56.7 °F 48.8 °F 29.90 in Calm   1.0 mph 75 % 0.00 in 0 W/m2
22:39 56.5 °F 48.6 °F 29.90 in Calm   1.0 mph 75 % 0.00 in 0 W/m2
22:44 56.1 °F 47.9 °F 29.90 in Calm   1.0 mph 74 % 0.00 in 0 W/m2
22:49 55.8 °F 47.6 °F 29.90 in Calm   1.0 mph 74 % 0.00 in 0 W/m2
22:54 55.4 °F 47.2 °F 29.90 in Calm   1.0 mph 74 % 0.00 in 0 W/m2
22:59 55.0 °F 46.9 °F 29.91 in Calm     74 % 0.00 in 0 W/m2
23:04 54.7 °F 46.9 °F 29.90 in Calm   2.0 mph 75 % 0.00 in 0 W/m2
23:09 54.3 °F 46.6 °F 29.91 in Calm   2.0 mph 75 % 0.00 in 0 W/m2
23:14 54.1 °F 46.4 °F 29.91 in Calm   2.0 mph 75 % 0.00 in 0 W/m2
23:19 54.0 °F 46.2 °F 29.91 in WNW 1.0 mph 5.0 mph 75 % 0.00 in 0 W/m2
23:25 53.8 °F 46.0 °F 29.91 in West 2.0 mph 6.0 mph 75 % 0.00 in 0 W/m2
23:30 53.6 °F 45.9 °F 29.91 in West 3.0 mph 6.0 mph 75 % 0.00 in 0 W/m2
23:35 53.4 °F 45.7 °F 29.91 in West 2.0 mph 6.0 mph 75 % 0.00 in 0 W/m2
23:40 53.2 °F 45.5 °F 29.91 in West 2.0 mph 10.0 mph 75 % 0.00 in 0 W/m2
23:45 53.1 °F 45.3 °F 29.90 in West 3.0 mph 10.0 mph 75 % 0.00 in 0 W/m2
23:50 53.1 °F 45.7 °F 29.91 in West 4.0 mph 8.0 mph 76 % 0.00 in 0 W/m2
23:55 52.9 °F 45.5 °F 29.90 in West 4.0 mph 8.0 mph 76 % 0.00 in 0 W/m2
Delerius-Weather
Compliments of Weather Underground - 2.25 mb

Data updates at regular intervals.